Time;durP1;ratioP1;P1;durP2;ratioP2;P2;SDS_P1;SDS_P2;PMS_P1;PMS_P2;Temp;Humidity;BMP_temperature;BMP_pressure;BME280_temperature;BME280_humidity;BME280_pressure;Samples;Min_cycle;Max_cycle;Signal;HPM_P1;HPM_P2
2021/09/03 00:02:10;;;;;;;12.52;8.13;;;11.30;99.90;;;;;;5050092;28;20510;-49
2021/09/03 00:04:36;;;;;;;11.20;7.90;;;11.20;99.90;;;;;;5047332;28;20036;-46
2021/09/03 00:07:01;;;;;;;13.27;7.80;;;11.20;99.90;;;;;;5049365;28;20020;-45
2021/09/03 00:09:27;;;;;;;13.50;9.07;;;11.20;99.90;;;;;;5046209;28;20028;-47
2021/09/03 00:11:52;;;;;;;18.25;8.90;;;11.20;99.90;;;;;;5048855;28;20029;-47
2021/09/03 00:14:18;;;;;;;14.30;9.38;;;11.20;99.90;;;;;;5045419;28;20037;-46
2021/09/03 00:16:44;;;;;;;12.63;8.52;;;11.10;99.90;;;;;;5049424;28;20139;-47
2021/09/03 00:19:09;;;;;;;11.80;8.77;;;11.20;99.90;;;;;;5042965;28;20052;-50
2021/09/03 00:21:35;;;;;;;14.55;8.82;;;11.10;99.90;;;;;;5050309;28;20102;-46
2021/09/03 00:24:00;;;;;;;12.48;9.23;;;11.10;99.90;;;;;;5044345;28;20036;-45
2021/09/03 00:26:26;;;;;;;12.45;8.98;;;11.10;99.90;;;;;;5047956;28;20394;-46
2021/09/03 00:28:51;;;;;;;14.43;8.88;;;11.10;99.90;;;;;;5048236;28;20029;-46
2021/09/03 00:31:17;;;;;;;12.32;8.38;;;11.10;99.90;;;;;;5045551;28;20024;-49
2021/09/03 00:33:43;;;;;;;12.05;8.18;;;11.10;99.90;;;;;;5044342;28;20032;-52
2021/09/03 00:36:09;;;;;;;14.07;9.13;;;11.00;99.90;;;;;;5042784;28;20147;-46
2021/09/03 00:38:34;;;;;;;15.60;8.68;;;11.00;99.90;;;;;;5050155;28;20086;-47
2021/09/03 00:41:00;;;;;;;12.63;9.02;;;11.00;99.90;;;;;;5043964;28;20043;-49
2021/09/03 00:43:29;;;;;;;13.30;8.77;;;11.00;99.90;;;;;;5041949;28;20023;-49
2021/09/03 00:45:56;;;;;;;11.70;9.20;;;11.00;99.90;;;;;;5042789;28;20041;-47
2021/09/03 00:48:21;;;;;;;13.57;9.48;;;11.00;99.90;;;;;;5034854;28;20044;-45
2021/09/03 00:50:47;;;;;;;14.48;8.93;;;11.00;99.90;;;;;;5049829;28;20025;-45
2021/09/03 00:53:13;;;;;;;16.38;8.95;;;10.90;99.90;;;;;;5041856;28;20025;-46
2021/09/03 00:55:42;;;;;;;16.52;10.00;;;10.90;99.90;;;;;;5049459;28;20100;-48
2021/09/03 00:58:08;;;;;;;14.43;8.07;;;10.90;99.90;;;;;;5041123;28;20530;-52
2021/09/03 01:00:33;;;;;;;15.77;9.45;;;10.90;99.90;;;;;;5046526;28;20029;-46
2021/09/03 01:02:59;;;;;;;14.77;9.50;;;10.80;99.90;;;;;;5046895;28;20067;-49
2021/09/03 01:05:24;;;;;;;11.93;8.73;;;10.80;99.90;;;;;;5044520;28;20483;-45
2021/09/03 01:07:51;;;;;;;15.55;9.25;;;10.80;99.90;;;;;;5047788;28;20054;-44
2021/09/03 01:10:21;;;;;;;15.30;9.05;;;10.80;99.90;;;;;;5043433;28;20384;-50
2021/09/03 01:12:48;;;;;;;12.75;9.48;;;10.80;99.90;;;;;;5048080;28;20029;-46
2021/09/03 01:15:14;;;;;;;16.08;8.82;;;10.70;99.90;;;;;;5043247;28;20719;-45
2021/09/03 01:17:40;;;;;;;14.35;10.13;;;10.80;99.90;;;;;;5044641;28;20167;-46
2021/09/03 01:20:08;;;;;;;17.52;9.75;;;10.80;99.90;;;;;;5045301;28;20017;-46
2021/09/03 01:22:33;;;;;;;12.40;9.48;;;10.70;99.90;;;;;;5043803;28;20038;-45
2021/09/03 01:24:59;;;;;;;15.45;9.88;;;10.70;99.90;;;;;;5046757;28;20017;-47
2021/09/03 01:27:25;;;;;;;15.30;9.43;;;10.70;99.90;;;;;;5048437;28;20033;-47
2021/09/03 01:29:51;;;;;;;14.52;9.77;;;10.70;99.90;;;;;;5043685;28;20029;-47
2021/09/03 01:32:17;;;;;;;13.35;9.45;;;10.70;99.90;;;;;;5048422;28;20032;-51
2021/09/03 01:34:42;;;;;;;14.35;9.32;;;10.70;99.90;;;;;;5044510;28;20030;-48
2021/09/03 01:37:08;;;;;;;16.20;9.38;;;10.70;99.90;;;;;;5046043;28;20063;-45
2021/09/03 01:39:33;;;;;;;13.18;9.13;;;10.70;99.90;;;;;;5042606;28;20025;-48
2021/09/03 01:41:59;;;;;;;14.00;9.35;;;10.70;99.90;;;;;;5045974;28;20498;-47
2021/09/03 01:44:25;;;;;;;17.30;10.45;;;10.70;99.90;;;;;;5048516;28;20037;-48
2021/09/03 01:46:50;;;;;;;15.82;9.50;;;10.70;99.90;;;;;;5045149;28;20021;-49
2021/09/03 01:49:16;;;;;;;16.73;10.40;;;10.70;99.90;;;;;;5047847;28;20074;-45
2021/09/03 01:51:41;;;;;;;14.30;9.10;;;10.70;99.90;;;;;;5043393;28;20112;-48
2021/09/03 01:54:07;;;;;;;13.80;8.93;;;10.70;99.90;;;;;;5046716;28;20096;-45
2021/09/03 01:56:32;;;;;;;11.90;7.85;;;10.60;99.90;;;;;;5041823;28;20459;-45
2021/09/03 01:58:58;;;;;;;11.77;8.07;;;10.70;99.90;;;;;;5045775;28;20025;-45
2021/09/03 02:01:23;;;;;;;14.00;8.88;;;10.60;99.90;;;;;;5047105;28;20391;-50
2021/09/03 02:03:49;;;;;;;13.43;9.27;;;10.60;99.90;;;;;;5043592;28;20013;-46
2021/09/03 02:06:14;;;;;;;14.77;9.10;;;10.60;99.90;;;;;;5046944;28;20040;-45
2021/09/03 02:08:40;;;;;;;17.20;8.80;;;10.60;99.90;;;;;;5044480;28;20064;-45
2021/09/03 02:11:05;;;;;;;16.75;9.10;;;10.60;99.90;;;;;;5046872;28;20032;-44
2021/09/03 02:13:31;;;;;;;17.27;10.48;;;10.60;99.90;;;;;;5043563;28;20440;-46
2021/09/03 02:15:57;;;;;;;11.88;8.70;;;10.60;99.90;;;;;;5046783;28;20024;-49
2021/09/03 02:18:22;;;;;;;14.93;8.48;;;10.60;99.90;;;;;;5044239;28;20029;-48
2021/09/03 02:20:48;;;;;;;14.27;8.68;;;10.60;99.90;;;;;;5046546;28;20032;-48
2021/09/03 02:23:14;;;;;;;14.77;8.95;;;10.60;99.90;;;;;;5043262;28;20025;-44
2021/09/03 02:25:40;;;;;;;14.80;9.00;;;10.60;99.90;;;;;;5044391;28;20502;-47
2021/09/03 02:28:05;;;;;;;14.48;8.43;;;10.60;99.90;;;;;;5046056;28;20430;-45
2021/09/03 02:30:31;;;;;;;14.02;8.43;;;10.60;99.90;;;;;;5045132;28;20032;-47
2021/09/03 02:32:57;;;;;;;17.00;8.90;;;10.60;99.90;;;;;;5047255;28;20036;-49
2021/09/03 02:35:22;;;;;;;16.80;8.90;;;10.60;99.90;;;;;;5043546;28;20033;-45
2021/09/03 02:37:48;;;;;;;16.75;9.38;;;10.70;99.90;;;;;;5046504;28;20040;-48
2021/09/03 02:40:14;;;;;;;14.55;8.55;;;10.70;99.90;;;;;;5043303;28;20025;-44
2021/09/03 02:42:39;;;;;;;17.13;9.32;;;10.80;99.90;;;;;;5045983;28;20495;-46
2021/09/03 02:45:06;;;;;;;14.40;8.80;;;10.80;99.90;;;;;;5038808;28;20029;-47
2021/09/03 02:47:33;;;;;;;13.43;8.48;;;10.80;99.90;;;;;;5030176;28;20105;-46
2021/09/03 02:49:59;;;;;;;14.30;9.60;;;10.90;99.90;;;;;;5040113;28;20088;-45
2021/09/03 02:52:24;;;;;;;13.27;9.38;;;10.90;99.90;;;;;;5042957;28;20033;-45
2021/09/03 02:54:50;;;;;;;13.52;9.48;;;10.90;99.90;;;;;;5045801;28;20025;-47
2021/09/03 02:57:15;;;;;;;16.50;9.35;;;11.00;99.90;;;;;;5043134;28;20090;-49
2021/09/03 02:59:41;;;;;;;16.25;10.23;;;11.00;99.90;;;;;;5043451;28;20029;-45
2021/09/03 03:02:07;;;;;;;16.63;10.30;;;11.10;99.90;;;;;;5041951;28;20107;-46
2021/09/03 03:04:32;;;;;;;18.15;9.88;;;11.10;99.90;;;;;;5044094;28;20051;-46
2021/09/03 03:06:58;;;;;;;17.38;10.20;;;11.10;99.90;;;;;;5042994;28;20063;-48
2021/09/03 03:09:23;;;;;;;16.35;9.77;;;11.20;99.90;;;;;;5042893;28;20029;-45
2021/09/03 03:11:49;;;;;;;17.48;9.75;;;11.20;99.90;;;;;;5043830;28;20028;-44
2021/09/03 03:14:16;;;;;;;15.15;9.55;;;11.30;99.90;;;;;;5040909;28;20514;-47
2021/09/03 03:16:42;;;;;;;17.95;10.65;;;11.30;99.90;;;;;;5043383;28;20048;-46
2021/09/03 03:19:07;;;;;;;18.00;10.45;;;11.40;99.90;;;;;;5041342;28;20053;-48
2021/09/03 03:21:33;;;;;;;21.65;11.43;;;11.40;99.90;;;;;;5043854;28;20065;-45
2021/09/03 03:23:59;;;;;;;21.33;9.98;;;11.50;99.90;;;;;;5043140;28;20029;-45
2021/09/03 03:26:25;;;;;;;19.48;11.15;;;11.50;99.90;;;;;;5043367;28;20033;-48
2021/09/03 03:28:51;;;;;;;19.45;11.13;;;11.50;99.90;;;;;;5043347;28;20021;-48
2021/09/03 03:31:16;;;;;;;19.42;11.10;;;11.60;99.90;;;;;;5038638;28;20022;-47
2021/09/03 03:33:42;;;;;;;20.80;11.25;;;11.60;99.90;;;;;;5044040;28;20028;-45
2021/09/03 03:36:07;;;;;;;16.83;10.38;;;11.60;99.90;;;;;;5040906;28;20037;-49
2021/09/03 03:38:33;;;;;;;20.58;11.65;;;11.70;99.90;;;;;;5044775;28;20548;-50
2021/09/03 03:40:58;;;;;;;21.83;11.57;;;11.70;99.90;;;;;;5042885;28;20033;-52
2021/09/03 03:43:24;;;;;;;20.13;10.88;;;11.70;99.90;;;;;;5043604;28;20104;-50
2021/09/03 03:45:50;;;;;;;17.95;10.40;;;11.80;99.90;;;;;;5041889;28;20104;-50
2021/09/03 03:48:15;;;;;;;20.38;12.52;;;11.80;99.90;;;;;;5038802;28;20029;-49
2021/09/03 03:50:41;;;;;;;23.98;11.52;;;11.80;99.90;;;;;;5043975;28;20021;-51
2021/09/03 03:53:11;;;;;;;22.38;11.00;;;11.80;99.90;;;;;;5040968;28;20104;-49
2021/09/03 03:55:37;;;;;;;21.13;12.50;;;11.80;99.90;;;;;;5038779;28;20407;-51
2021/09/03 03:58:02;;;;;;;17.83;11.93;;;11.90;99.90;;;;;;5044630;28;20025;-47
2021/09/03 04:00:28;;;;;;;19.95;11.05;;;11.90;99.90;;;;;;5038452;28;20094;-47
2021/09/03 04:02:54;;;;;;;20.58;11.65;;;12.00;99.90;;;;;;5045619;28;20033;-49
2021/09/03 04:05:19;;;;;;;19.42;11.48;;;12.00;99.90;;;;;;5038672;28;20029;-48
2021/09/03 04:07:45;;;;;;;17.17;10.38;;;12.00;99.90;;;;;;5045136;28;20025;-46
2021/09/03 04:10:10;;;;;;;21.75;12.20;;;12.00;99.90;;;;;;5040048;28;20092;-48
2021/09/03 04:12:36;;;;;;;21.92;11.45;;;12.00;99.90;;;;;;5038817;28;20099;-46
2021/09/03 04:15:02;;;;;;;18.20;11.02;;;12.10;99.90;;;;;;5043202;28;20087;-51
2021/09/03 04:17:27;;;;;;;19.38;11.23;;;12.00;99.90;;;;;;5039283;28;20030;-46
2021/09/03 04:19:53;;;;;;;17.58;11.27;;;12.10;99.90;;;;;;5046015;28;20049;-48
2021/09/03 04:22:19;;;;;;;17.70;10.75;;;12.10;99.90;;;;;;5037746;28;20025;-49
2021/09/03 04:24:44;;;;;;;19.88;10.60;;;12.10;99.90;;;;;;5044715;28;20032;-50
2021/09/03 04:27:10;;;;;;;23.33;11.25;;;12.10;99.90;;;;;;5039786;28;20553;-50
2021/09/03 04:29:35;;;;;;;15.90;10.05;;;12.20;99.90;;;;;;5038522;28;20088;-50
2021/09/03 04:32:01;;;;;;;18.58;11.13;;;12.20;99.90;;;;;;5043267;28;20324;-47
2021/09/03 04:34:27;;;;;;;19.70;12.38;;;12.20;99.90;;;;;;5038570;28;20025;-48
2021/09/03 04:36:52;;;;;;;18.85;10.32;;;12.20;99.90;;;;;;5043905;28;20061;-52
2021/09/03 04:39:18;;;;;;;19.33;11.43;;;12.30;99.90;;;;;;5038637;28;20041;-49
2021/09/03 04:41:44;;;;;;;20.83;12.23;;;12.30;99.90;;;;;;5044881;28;20084;-46
2021/09/03 04:44:09;;;;;;;23.00;11.98;;;12.30;99.90;;;;;;5040312;28;20392;-49
2021/09/03 04:46:35;;;;;;;20.30;11.55;;;12.40;99.90;;;;;;5037100;28;20013;-49
2021/09/03 04:49:00;;;;;;;21.63;12.43;;;12.40;99.90;;;;;;5044669;28;20088;-49
2021/09/03 04:51:26;;;;;;;20.27;11.73;;;12.50;99.90;;;;;;5038657;28;20486;-52
2021/09/03 04:53:51;;;;;;;22.75;12.07;;;12.50;99.90;;;;;;5039843;28;20030;-46
2021/09/03 04:56:17;;;;;;;19.45;11.15;;;12.50;99.90;;;;;;5040684;28;20021;-49
2021/09/03 04:58:43;;;;;;;25.75;13.30;;;12.50;99.90;;;;;;5039522;28;20057;-48
2021/09/03 05:01:08;;;;;;;25.83;13.10;;;12.60;99.90;;;;;;5039828;28;20395;-48
2021/09/03 05:03:34;;;;;;;21.65;13.10;;;12.60;99.90;;;;;;5041581;28;20113;-48
2021/09/03 05:05:59;;;;;;;22.38;12.57;;;12.70;99.90;;;;;;5038232;28;20017;-50
2021/09/03 05:08:25;;;;;;;22.67;12.45;;;12.70;99.90;;;;;;5044895;28;20036;-48
2021/09/03 05:10:51;;;;;;;27.67;12.88;;;12.70;99.90;;;;;;5037864;28;20037;-46
2021/09/03 05:13:16;;;;;;;22.23;12.30;;;12.70;99.90;;;;;;5040208;28;20029;-47
2021/09/03 05:15:44;;;;;;;19.00;12.15;;;12.80;99.90;;;;;;5038720;28;20048;-48
2021/09/03 05:18:10;;;;;;;22.23;12.73;;;12.80;99.90;;;;;;5039609;28;20030;-52
2021/09/03 05:20:35;;;;;;;22.85;12.63;;;12.80;99.90;;;;;;5044311;28;20025;-47
2021/09/03 05:23:01;;;;;;;21.27;12.18;;;12.90;99.90;;;;;;5038656;28;20387;-49
2021/09/03 05:25:27;;;;;;;22.00;11.82;;;12.90;99.90;;;;;;5043780;28;20025;-46
2021/09/03 05:27:53;;;;;;;19.65;11.60;;;12.90;99.90;;;;;;5037697;28;20032;-48
2021/09/03 05:30:18;;;;;;;19.58;11.98;;;13.00;99.90;;;;;;5039726;28;20025;-50
2021/09/03 05:32:46;;;;;;;16.08;9.88;;;13.00;99.90;;;;;;5040444;28;20026;-45
2021/09/03 05:35:12;;;;;;;23.67;13.43;;;13.00;99.90;;;;;;5039470;28;20100;-48
2021/09/03 05:37:38;;;;;;;20.67;11.85;;;13.10;99.90;;;;;;5041222;28;20452;-48
2021/09/03 05:40:06;;;;;;;20.48;12.45;;;13.10;99.90;;;;;;5038685;28;20021;-51
2021/09/03 05:42:32;;;;;;;25.70;12.82;;;13.10;99.90;;;;;;5043378;28;20037;-47
2021/09/03 05:44:58;;;;;;;20.23;12.07;;;13.10;99.90;;;;;;5037066;28;20018;-49
2021/09/03 05:47:23;;;;;;;20.20;12.25;;;13.20;99.90;;;;;;5040780;28;20597;-50
2021/09/03 05:49:49;;;;;;;21.42;12.68;;;13.30;99.90;;;;;;5039258;28;20021;-52
2021/09/03 05:52:14;;;;;;;19.90;11.68;;;13.30;99.90;;;;;;5040100;28;20032;-49
2021/09/03 05:54:40;;;;;;;21.67;13.00;;;13.40;99.90;;;;;;5041395;28;20028;-47
2021/09/03 05:57:06;;;;;;;17.55;12.10;;;13.40;99.90;;;;;;5037932;28;20083;-50
2021/09/03 05:59:32;;;;;;;33.08;15.20;;;13.50;99.90;;;;;;5040631;28;20491;-47
2021/09/03 06:01:58;;;;;;;17.85;12.25;;;13.50;99.90;;;;;;5038272;28;20037;-47
2021/09/03 06:04:23;;;;;;;17.40;12.00;;;13.60;99.90;;;;;;5038982;28;20051;-49
2021/09/03 06:06:49;;;;;;;20.25;12.30;;;13.60;99.90;;;;;;5040400;28;20128;-46
2021/09/03 06:09:15;;;;;;;21.23;13.98;;;13.60;99.90;;;;;;5040152;28;20025;-51
2021/09/03 06:11:40;;;;;;;17.55;11.40;;;13.70;99.90;;;;;;5040767;28;20396;-49
2021/09/03 06:14:07;;;;;;;18.77;11.63;;;13.70;99.90;;;;;;5038132;28;20021;-46
2021/09/03 06:16:33;;;;;;;26.10;12.70;;;13.80;99.90;;;;;;5039526;28;20463;-49
2021/09/03 06:18:58;;;;;;;18.33;12.32;;;13.80;99.90;;;;;;5039391;28;20074;-47
2021/09/03 06:21:24;;;;;;;19.35;12.00;;;13.90;99.90;;;;;;5040833;28;20407;-50
2021/09/03 06:23:49;;;;;;;16.75;10.75;;;13.90;99.90;;;;;;5038307;28;20498;-51
2021/09/03 06:26:15;;;;;;;21.27;12.10;;;14.00;99.90;;;;;;5045598;28;20111;-47
2021/09/03 06:28:41;;;;;;;25.05;11.50;;;14.00;99.90;;;;;;5043583;28;20357;-46
2021/09/03 06:31:07;;;;;;;20.77;11.55;;;14.10;99.90;;;;;;5044669;28;20515;-47
2021/09/03 06:33:33;;;;;;;24.23;11.38;;;14.10;99.90;;;;;;5035409;28;20376;-50
2021/09/03 06:35:58;;;;;;;18.75;10.90;;;14.20;99.90;;;;;;5035985;28;20025;-46
2021/09/03 06:38:25;;;;;;;18.38;10.88;;;14.20;99.90;;;;;;5039242;28;20403;-49
2021/09/03 06:40:50;;;;;;;17.80;11.23;;;14.20;99.90;;;;;;5029396;28;20021;-54
2021/09/03 06:43:16;;;;;;;16.27;9.70;;;14.30;99.90;;;;;;5042085;28;20025;-46
2021/09/03 06:45:41;;;;;;;16.77;10.43;;;14.30;99.90;;;;;;5031922;28;20026;-50
2021/09/03 06:48:07;;;;;;;17.73;9.82;;;14.40;99.90;;;;;;5035211;28;20014;-47
2021/09/03 06:50:33;;;;;;;23.48;11.00;;;14.40;99.90;;;;;;5035962;28;20144;-49
2021/09/03 06:52:58;;;;;;;22.02;11.13;;;14.40;99.90;;;;;;5036875;28;20025;-48
2021/09/03 06:55:24;;;;;;;18.05;10.40;;;14.50;99.90;;;;;;5038153;28;20052;-46
2021/09/03 06:57:49;;;;;;;18.88;9.40;;;14.50;99.90;;;;;;5041739;28;20044;-48
2021/09/03 07:00:15;;;;;;;18.98;10.18;;;14.60;99.90;;;;;;5037063;28;20113;-48
2021/09/03 07:02:40;;;;;;;18.40;9.02;;;14.70;99.90;;;;;;5041362;28;20029;-49
2021/09/03 07:05:07;;;;;;;13.70;8.77;;;14.80;99.90;;;;;;5036369;28;20057;-48
2021/09/03 07:07:32;;;;;;;16.70;9.18;;;14.80;99.90;;;;;;5041012;28;20356;-49
2021/09/03 07:09:58;;;;;;;14.05;9.00;;;14.80;99.90;;;;;;5039699;28;20108;-48
2021/09/03 07:12:24;;;;;;;11.13;7.88;;;14.90;99.90;;;;;;5036573;28;20025;-51
2021/09/03 07:14:50;;;;;;;20.80;9.25;;;15.00;99.90;;;;;;5041347;28;20716;-48
2021/09/03 07:17:17;;;;;;;16.17;8.57;;;15.10;99.90;;;;;;5036579;28;20053;-53
2021/09/03 07:19:43;;;;;;;12.40;8.70;;;15.10;99.90;;;;;;5041638;28;20384;-50
2021/09/03 07:22:09;;;;;;;16.05;8.55;;;15.20;99.90;;;;;;5037850;28;20040;-52
2021/09/03 07:24:35;;;;;;;14.73;8.75;;;15.20;99.90;;;;;;5041076;28;20433;-50
2021/09/03 07:27:03;;;;;;;13.48;8.52;;;15.30;99.90;;;;;;5039076;28;20021;-50
2021/09/03 07:29:28;;;;;;;12.10;8.98;;;15.30;99.90;;;;;;5036000;28;20018;-49
2021/09/03 07:31:55;;;;;;;16.63;9.23;;;15.50;99.90;;;;;;5041908;28;20033;-48
2021/09/03 07:34:20;;;;;;;12.48;8.88;;;15.50;99.90;;;;;;5038179;28;20049;-52
2021/09/03 07:36:46;;;;;;;17.10;8.88;;;15.50;99.90;;;;;;5044523;28;20495;-49
2021/09/03 07:39:17;;;;;;;13.68;8.65;;;15.60;99.90;;;;;;5040910;28;20048;-51
2021/09/03 07:41:43;;;;;;;11.32;8.30;;;15.60;99.90;;;;;;5045597;28;20025;-53
2021/09/03 07:44:08;;;;;;;14.07;9.40;;;15.60;99.90;;;;;;5041117;28;20033;-52
2021/09/03 07:46:34;;;;;;;12.90;8.98;;;15.70;99.90;;;;;;5038762;28;20067;-49
2021/09/03 07:48:59;;;;;;;15.85;9.43;;;15.80;99.90;;;;;;5045873;22;20354;-48
2021/09/03 07:51:25;;;;;;;13.77;8.98;;;15.90;99.90;;;;;;5019379;28;20018;-49
2021/09/03 07:53:52;;;;;;;14.85;8.00;;;16.00;99.90;;;;;;5020354;28;20038;-49
2021/09/03 07:56:18;;;;;;;15.32;9.07;;;16.00;99.90;;;;;;5022510;28;20034;-48
2021/09/03 07:58:43;;;;;;;13.90;9.55;;;16.10;99.90;;;;;;5022161;28;20033;-50
2021/09/03 08:01:09;;;;;;;14.43;9.48;;;16.10;99.90;;;;;;5020127;28;20501;-51
2021/09/03 08:03:35;;;;;;;13.55;9.88;;;16.20;99.90;;;;;;5022820;28;20022;-52
2021/09/03 08:06:00;;;;;;;14.00;9.05;;;16.20;99.90;;;;;;5018599;28;20026;-52
2021/09/03 08:08:26;;;;;;;14.77;9.10;;;16.10;99.90;;;;;;5026636;28;20022;-49
2021/09/03 08:10:51;;;;;;;14.43;8.75;;;16.30;99.90;;;;;;5018371;28;20014;-51
2021/09/03 08:13:17;;;;;;;13.35;9.38;;;16.50;99.90;;;;;;5021469;28;20052;-52
2021/09/03 08:15:43;;;;;;;13.23;9.10;;;16.60;99.90;;;;;;5022023;28;20112;-50
2021/09/03 08:18:09;;;;;;;14.38;8.90;;;16.80;99.90;;;;;;5021268;28;20043;-55
2021/09/03 08:20:35;;;;;;;14.20;9.40;;;16.90;99.90;;;;;;5023861;28;20018;-50
2021/09/03 08:23:01;;;;;;;13.85;9.48;;;17.00;99.90;;;;;;5018777;28;20079;-53
2021/09/03 08:25:27;;;;;;;13.30;7.63;;;17.00;99.90;;;;;;5025335;28;20022;-50
2021/09/03 08:27:53;;;;;;;14.77;8.48;;;17.00;99.90;;;;;;5021770;28;20400;-54
2021/09/03 08:30:20;;;;;;;11.13;6.47;;;17.00;99.90;;;;;;5022438;28;20025;-49
2021/09/03 08:32:46;;;;;;;15.30;6.75;;;17.10;99.90;;;;;;5021011;28;20018;-53
2021/09/03 08:35:12;;;;;;;10.07;6.60;;;17.40;99.90;;;;;;5020476;28;20503;-48
2021/09/03 08:37:40;;;;;;;8.60;6.65;;;17.70;99.90;;;;;;5022459;28;20030;-54
2021/09/03 08:40:08;;;;;;;10.93;6.22;;;17.80;99.90;;;;;;5020595;28;20014;-51
2021/09/03 08:42:36;;;;;;;10.43;5.63;;;17.90;99.90;;;;;;5024445;28;20718;-50
2021/09/03 08:45:04;;;;;;;9.25;5.80;;;17.80;99.90;;;;;;5019135;28;20373;-52
2021/09/03 08:47:29;;;;;;;10.10;5.88;;;17.80;99.90;;;;;;5022164;28;20049;-49
2021/09/03 08:49:55;;;;;;;11.23;5.15;;;17.90;99.90;;;;;;5019795;28;20065;-51
2021/09/03 08:52:20;;;;;;;12.75;5.97;;;17.90;99.90;;;;;;5022193;28;20051;-49
2021/09/03 08:54:46;;;;;;;8.02;5.78;;;18.10;99.90;;;;;;5022653;28;20034;-50
2021/09/03 08:57:14;;;;;;;8.85;5.70;;;18.30;99.90;;;;;;5019055;28;20050;-48
2021/09/03 08:59:40;;;;;;;12.77;5.80;;;18.50;99.90;;;;;;5021943;28;20100;-50
2021/09/03 09:02:15;;;;;;;8.02;4.97;;;18.60;99.90;;;;;;5020042;28;20076;-52
2021/09/03 09:04:43;;;;;;;11.63;6.22;;;18.60;99.90;;;;;;5020298;28;20087;-53
2021/09/03 09:07:09;;;;;;;13.43;5.75;;;18.70;99.90;;;;;;5019491;28;20083;-50
2021/09/03 09:09:42;;;;;;;10.35;6.03;;;18.90;99.90;;;;;;5021268;28;20028;-52
2021/09/03 09:12:12;;;;;;;7.85;5.18;;;19.00;99.90;;;;;;5019625;28;20082;-48
2021/09/03 09:14:57;;;;;;;10.20;5.95;;;19.10;99.90;;;;;;5019713;28;20409;-53
2021/09/03 09:17:31;;;;;;;13.27;6.53;;;19.30;99.90;;;;;;5012970;28;20046;-53
2021/09/03 09:19:57;;;;;;;8.32;5.80;;;19.30;99.90;;;;;;5023460;28;20109;-54
2021/09/03 09:22:23;;;;;;;10.95;6.70;;;19.50;99.90;;;;;;5021159;28;20029;-51
2021/09/03 09:24:48;;;;;;;11.68;4.97;;;19.50;99.90;;;;;;5024264;28;20033;-49
2021/09/03 09:27:25;;;;;;;8.88;5.43;;;19.50;99.90;;;;;;5010644;28;20061;-49
2021/09/03 09:29:52;;;;;;;9.98;5.70;;;19.50;99.90;;;;;;5007723;28;20511;-49
2021/09/03 09:32:17;;;;;;;12.98;6.38;;;19.60;99.90;;;;;;5009241;28;20607;-47
2021/09/03 09:34:44;;;;;;;7.43;5.40;;;19.70;99.90;;;;;;5008745;28;20037;-53
2021/09/03 09:37:18;;;;;;;10.30;6.07;;;19.70;99.90;;;;;;5016521;28;20050;-52
2021/09/03 09:39:45;;;;;;;9.55;5.93;;;19.70;99.90;;;;;;5017253;28;20072;-54
2021/09/03 09:42:23;;;;;;;13.55;6.82;;;19.70;99.90;;;;;;5011404;28;20049;-50
2021/09/03 09:45:07;;;;;;;11.23;6.88;;;19.70;99.90;;;;;;5012605;28;20388;-49
2021/09/03 09:47:33;;;;;;;11.13;6.65;;;19.70;99.90;;;;;;4997321;28;20022;-48
2021/09/03 09:50:18;;;;;;;10.55;6.63;;;19.70;99.90;;;;;;5012906;28;20041;-50
2021/09/03 09:52:44;;;;;;;10.97;6.83;;;19.70;99.90;;;;;;5010020;28;20042;-54
2021/09/03 09:55:09;;;;;;;11.85;6.95;;;19.60;99.90;;;;;;5017074;28;20052;-51
2021/09/03 09:57:35;;;;;;;10.88;6.70;;;19.50;99.90;;;;;;5020389;28;20029;-49
2021/09/03 10:00:05;;;;;;;13.20;7.40;;;19.60;99.90;;;;;;5012517;28;20040;-53
2021/09/03 10:02:33;;;;;;;12.38;7.45;;;19.70;99.90;;;;;;5014007;28;20391;-50
2021/09/03 10:05:00;;;;;;;11.27;7.28;;;19.60;99.90;;;;;;5019727;28;20033;-52
2021/09/03 10:07:27;;;;;;;13.70;7.45;;;19.60;99.90;;;;;;5020187;28;20052;-49
2021/09/03 10:09:52;;;;;;;9.60;7.43;;;19.60;99.90;;;;;;5020491;28;20476;-52
2021/09/03 10:12:19;;;;;;;12.52;8.10;;;19.50;99.90;;;;;;5016997;28;20100;-50
2021/09/03 10:14:45;;;;;;;17.55;8.20;;;19.60;99.90;;;;;;5021014;28;20025;-54
2021/09/03 10:17:12;;;;;;;13.70;8.48;;;19.60;99.90;;;;;;5017185;28;20083;-53
2021/09/03 10:19:41;;;;;;;13.40;8.77;;;19.70;99.90;;;;;;5019851;28;20030;-51
2021/09/03 10:22:16;;;;;;;14.73;8.65;;;19.40;99.90;;;;;;5018381;28;20032;-49
2021/09/03 10:24:43;;;;;;;16.23;9.23;;;19.40;99.90;;;;;;5016990;28;20018;-53
2021/09/03 10:27:10;;;;;;;13.63;9.23;;;19.50;99.90;;;;;;5018346;28;20025;-50
2021/09/03 10:29:44;;;;;;;14.10;10.00;;;19.50;99.90;;;;;;5015168;28;20032;-53
2021/09/03 10:32:13;;;;;;;13.98;9.40;;;19.60;99.90;;;;;;5021315;28;20065;-51
2021/09/03 10:34:57;;;;;;;16.15;10.60;;;19.70;99.90;;;;;;5016229;28;20109;-50
2021/09/03 10:37:31;;;;;;;14.80;10.60;;;19.70;99.90;;;;;;5010563;28;20037;-51
2021/09/03 10:39:59;;;;;;;17.63;11.48;;;19.70;99.90;;;;;;5014031;28;20028;-53
2021/09/03 10:45:10;;;;;;;19.65;13.35;;;19.70;99.90;;;;;;5016397;28;20037;-49
2021/09/03 10:47:39;;;;;;;18.35;11.52;;;19.70;99.90;;;;;;5018199;28;20053;-52
2021/09/03 10:50:12;;;;;;;16.05;11.70;;;19.70;99.90;;;;;;5016018;28;20049;-50
2021/09/03 10:52:38;;;;;;;19.20;11.93;;;19.60;99.90;;;;;;5019853;28;20148;-49
2021/09/03 10:55:08;;;;;;;16.25;10.95;;;19.60;99.90;;;;;;5016899;28;20487;-49
2021/09/03 10:57:57;;;;;;;18.20;11.30;;;19.60;99.90;;;;;;5019373;28;20029;-54
2021/09/03 11:00:24;;;;;;;16.25;11.45;;;19.50;99.90;;;;;;5013090;28;20026;-49
2021/09/03 11:02:49;;;;;;;17.25;11.60;;;19.50;99.90;;;;;;5022476;28;20057;-54
2021/09/03 11:05:15;;;;;;;16.75;11.43;;;19.50;99.90;;;;;;5016679;28;20511;-51
2021/09/03 11:07:45;;;;;;;18.08;10.95;;;19.40;99.90;;;;;;5021690;28;20025;-52
2021/09/03 11:10:19;;;;;;;17.58;11.82;;;19.40;99.90;;;;;;5016938;28;20464;-51
2021/09/03 11:12:52;;;;;;;17.00;11.98;;;19.40;99.90;;;;;;5015462;28;20113;-53
2021/09/03 11:15:19;;;;;;;17.58;11.70;;;19.30;99.90;;;;;;5022314;28;20113;-53
2021/09/03 11:17:46;;;;;;;19.17;11.93;;;19.20;99.90;;;;;;5011072;28;20109;-53
2021/09/03 11:20:13;;;;;;;22.85;13.50;;;19.30;99.90;;;;;;5014428;28;20087;-50
2021/09/03 11:22:39;;;;;;;17.30;12.02;;;19.30;99.90;;;;;;5013683;28;20492;-53
2021/09/03 11:25:07;;;;;;;17.80;11.70;;;19.40;99.90;;;;;;5012565;28;20072;-49
2021/09/03 11:27:34;;;;;;;18.10;11.18;;;19.40;99.90;;;;;;5014162;28;20029;-54
2021/09/03 11:30:03;;;;;;;17.25;11.73;;;19.50;99.90;;;;;;5012145;28;20102;-52
2021/09/03 11:32:32;;;;;;;14.98;11.20;;;19.50;99.90;;;;;;5014959;28;20435;-51
2021/09/03 11:35:05;;;;;;;18.23;10.50;;;19.50;99.90;;;;;;5019791;28;20022;-50
2021/09/03 11:37:37;;;;;;;16.83;10.65;;;19.50;99.90;;;;;;5011784;28;20104;-52
2021/09/03 11:40:12;;;;;;;19.55;11.05;;;19.50;99.90;;;;;;5014138;28;20438;-50
2021/09/03 11:42:43;;;;;;;17.35;11.30;;;19.50;99.90;;;;;;5013000;28;20029;-48
2021/09/03 11:45:17;;;;;;;21.83;12.63;;;19.50;99.90;;;;;;5013859;28;20454;-53
2021/09/03 11:47:54;;;;;;;18.10;12.43;;;19.50;99.90;;;;;;5011768;28;20026;-51
2021/09/03 11:50:44;;;;;;;15.63;10.55;;;19.50;99.90;;;;;;5006803;28;20184;-53
2021/09/03 11:53:16;;;;;;;20.08;11.90;;;19.50;99.90;;;;;;5012433;28;20038;-50
2021/09/03 11:55:44;;;;;;;15.68;10.80;;;19.50;99.90;;;;;;5014144;28;20038;-51
2021/09/03 11:58:11;;;;;;;16.92;10.45;;;19.60;99.90;;;;;;5025176;28;20399;-49
2021/09/03 12:00:45;;;;;;;21.38;11.13;;;19.60;99.90;;;;;;5019431;28;20022;-49
2021/09/03 12:03:17;;;;;;;16.35;11.60;;;19.70;99.90;;;;;;5025731;28;20057;-49
2021/09/03 12:05:46;;;;;;;17.42;11.27;;;19.70;99.90;;;;;;5018996;28;20029;-52
2021/09/03 12:08:14;;;;;;;15.45;10.73;;;19.70;99.90;;;;;;5026399;28;20041;-53
2021/09/03 12:10:41;;;;;;;17.92;11.10;;;19.70;99.90;;;;;;5019250;28;20022;-53
2021/09/03 12:13:30;;;;;;;12.40;9.32;;;19.80;99.90;;;;;;5021030;28;20092;-51
2021/09/03 12:16:04;;;;;;;17.17;10.63;;;19.80;99.90;;;;;;5018278;28;20026;-55
2021/09/03 12:18:38;;;;;;;14.55;10.68;;;19.90;99.90;;;;;;5022989;28;20032;-49
2021/09/03 12:21:13;;;;;;;16.85;10.82;;;19.90;99.90;;;;;;5010818;28;20664;-48
2021/09/03 12:23:45;;;;;;;23.05;12.10;;;19.90;99.90;;;;;;5011465;28;20025;-50
2021/09/03 12:26:15;;;;;;;17.70;11.18;;;19.90;99.90;;;;;;5011756;28;20014;-51
2021/09/03 12:28:42;;;;;;;14.98;10.38;;;19.80;99.90;;;;;;5010497;28;20031;-51
2021/09/03 12:31:11;;;;;;;14.48;11.13;;;19.90;99.90;;;;;;5012825;28;20060;-54
2021/09/03 12:33:45;;;;;;;16.45;11.48;;;19.90;99.90;;;;;;5022329;28;20571;-55
2021/09/03 12:36:12;;;;;;;15.07;10.68;;;20.00;99.90;;;;;;5008376;28;20026;-52